AirNav   AFIT - Accelerated Flight & Instrument Training
 
airports navaids fix Aviation Fuel airboss pilotshop
 325 users online  

8K7 Paul Windle Municipal Airport
Greensburg, Kansas, USA

GOING TO GREENSBURG?

Reserve a HOTEL

FAA INFORMATION EFFECTIVE 25 SEPTEMBER 2008

Location

FAA Identifier: 8K7
Lat/Long: 37-36-00.0660N / 099-16-30.4050W
37-36.001100N / 099-16.506750W
37.6000183 / -99.2751125
(estimated)
Elevation: 2230 ft. / 679.7 m (surveyed)
Variation: 08E (1985)
Time zone: UTC -5 (UTC -6 during Standard Time)
Zip code: 67054

Airport Operations

Airport use: Open to the public
Activation date: 12/1945
Sectional chart: WICHITA
Control tower: no
ARTCC: KANSAS CITY CENTER
FSS: WICHITA FLIGHT SERVICE STATION
NOTAMs facility: ICT (NOTAM-D service available)
Attendance: UNATNDD
FOR SVC OTHER HRS CALL 620-723-2751/2691.
Wind indicator: lighted
Segmented circle: no
Lights: RDO-CTL
ACTVT LIRL RY 17/35 - CTAF.

Airport Communications

CTAF: 122.9

Nearby radio navigation aids

VOR radial/distance  VOR name  Freq  Var
DDCr105/37.8DODGE CITY VORTAC108.2008E

 
NDB name  Hdg/Dist  Freq  Var  ID
PRATT246/26.235607EPTT .--. - -
LARNED186/37.329608ELQR .-.. --.- .-.

Airport Services

Parking: tiedowns
Airframe service: NONE
Powerplant service: NONE

Runway Information

Runway 2/20

Dimensions: 2600 x 130 ft. / 792 x 40 m
MKD BY MOWING.
Surface: turf, in good condition
RUNWAY 2  RUNWAY 20
Traffic pattern: leftleft
Obstructions: 15 ft. road, 50 ft. from runway, 3:1 slope to clear
40 FT TREE 130 FT LEFT OF THLD.
18 ft. road, 75 ft. from runway, 4:1 slope to clear

Runway 17/35

Dimensions: 2400 x 290 ft. / 732 x 88 m
Surface: turf, in good condition
Runway edge lights: non-standard
ONLY S 2125 FT LGTD.
RUNWAY 17  RUNWAY 35
Traffic pattern: leftleft
Displaced threshold: 275 ft.
DSPLCD THLD MARKED WITH ORANGE METAL 'A' FRAMES.
no
Obstructions: 18 ft. road, 60 ft. from runway, 3:1 slope to clear
APCH RATIO FROM DSPLCD THR 18:1.
15 ft. road, 30 ft. from runway, 2:1 slope to clear

Airport Ownership and Management from official FAA records

Ownership: Publicly-owned
Owner: CITY OF GREENSBURG
239 S. MAIN
GREENSBURG, KS 67054
Phone 620-723-2751
Manager: STEVE HEWITT
239 SOUTH MAIN
GREENSBURG, KS 67054
Phone 620-723-2691

Airport Operational Statistics

Aircraft based on the field: 2
Single engine airplanes: 1
Ultralights: 1
    
Aircraft operations: avg 71/week *
59% local general aviation
41% transient general aviation
* for 12-month period ending 13 August 2008

Instrument Procedures

There are no published instrument procedures at 8K7.

Some nearby airports with instrument procedures:

KPTT - Pratt Industrial Airport (26 nm E)
KDDC - Dodge City Regional Airport (34 nm W)
KLQR - Larned-Pawnee County Airport (38 nm N)
KBFK - Buffalo Municipal Airport (47 nm S)
KGBD - Great Bend Municipal Airport (49 nm NE)
 
Loc | Ops | Rwys | IFR | FBO | Links
Com | Nav | Svcs | Stats | Notes

$4.95 $4.25

 
Area around 8K7 (Paul Windle Municipal Airport)
 
Road maps at: MapQuest MapPoint Yahoo! Maps Google Rand McNally
Satellite photo at: TerraServer Virtual Earth

 
Aerial photo
WARNING: Photo may not be current or correct
Aerial photo of 8K7 (Paul Windle Municipal Airport)
Taken in March 2003

Do you have a better or more recent aerial photo of Paul Windle Municipal Airport that you would like to share? If so, please send us your photo.

 
Sectional chart
Click on chart to expand
Sectional chart courtesy of SkyVector.com

 
Airport distance calculator
Flying to Paul Windle Municipal Airport? Find the distance to fly.

From to 8K7

Sunrise and sunset
Times for 24-Oct-2008
 Local
(UTC-5)
 Zulu
(UTC)
Morning civil twilight07:2912:29
Sunrise07:5612:56
Sunset18:4623:46
Evening civil twilight19:1300:13

Current date and time
Zulu (UTC)  24-Oct-2008 06:42:21
Local (UTC-5)  24-Oct-2008 01:42:21
 
METAR
KPTT 
26nm E 
240610Z AUTO 30014KT 10SM OVC029 05/02 A3001 RMK AO2
KDDC 
34nm W 
240552Z AUTO 31010KT 10SM OVC022 03/01 A3005 RMK AO2 SLP184 T00330006 10039 20028 400610017 50008
KP28 
39nm SE 
240556Z AUTO 31009KT 06/02 A3002 RMK AO2 SLP169 T00610022 10061 20050 400830050 51006 PWINO TSNO
KGBD 
49nm NE 
240615Z AUTO 31012G17KT 10SM OVC033 04/02 A2999 RMK AO1
TAF
KDDC 
34nm W 
240535Z 240606 31011KT P6SM BKN025 FM1000 32009KT P6SM SCT030 FM1600 33013KT P6SM SCT250 FM0100 VRB06KT P6SM SKC
NOTAMs
Click for the latest NOTAMs
NOTAMs are issued by the DoD/FAA and will open in a separate window not controlled by AirNav.

 

 
 

FBO, Fuel Providers, and Aircraft Ground Support

 Business Name   Contact    Services / Description  Fuel Prices Comments
Kansas Aviation 785-723-3002
no information available

If you are affiliated with Kansas Aviation and would like to show here your services, contact info, web link, logo, and more, click here
no information available    write
Update Fuel Prices
 

Where to Stay: Hotels, Motels, Resorts, B&Bs;, Campgrounds

 In this space we feature lodging establishments that are convenient to the Paul Windle Municipal Airport. If your hotel/inn/B&B;/resort is near the Paul Windle Municipal Airport, provides convenient transportation, or is otherwise attractive to pilots, flight crews, and airport users, consider listing it here.  
Feature A Hotel
 

Hotels near Paul Windle Municipal Airport

Miles Price ($)
BEST WESTERN J HAWK MOTEL 1.3 66-80

Distances are approximate, and may vary depending on the actual route traveled and the location of the travel start on the airport.
    
 

Would you like to see your business listed on this page?

 If your business provides an interesting product or service to pilots, flight crews, aircraft, or users of the Paul Windle Municipal Airport, you should consider listing it here.  To start the listing process, click on the button below
 
Add a business
 

Other Pages about Paul Windle Municipal Airport

Update a link
 
Copyright © AirNav, LLC. All rights reserved. Privacy Policy  Contact